createdAt,value
2023-01-30T00:01:03.757Z,14.13
2023-01-30T00:03:31.106Z,13.02
2023-01-30T00:05:58.279Z,13.00
2023-01-30T00:08:25.423Z,20.58
2023-01-30T00:10:52.668Z,15.27
2023-01-30T00:13:19.879Z,15.17
2023-01-30T00:15:48.517Z,15.47
2023-01-30T00:18:15.705Z,12.27
2023-01-30T00:20:42.990Z,17.60
2023-01-30T00:23:10.182Z,13.87
2023-01-30T00:25:37.515Z,17.17
2023-01-30T00:28:04.827Z,15.53
2023-01-30T00:30:32.156Z,16.87
2023-01-30T00:32:59.732Z,12.93
2023-01-30T00:35:29.717Z,14.30
2023-01-30T00:37:58.357Z,11.43
2023-01-30T00:40:26.820Z,11.43
2023-01-30T00:43:13.048Z,14.38
2023-01-30T00:46:01.629Z,14.70
2023-01-30T00:48:29.319Z,15.30
2023-01-30T00:50:57.013Z,14.85
2023-01-30T00:53:24.931Z,14.45
2023-01-30T00:55:53.059Z,15.65
2023-01-30T00:58:21.553Z,13.45
2023-01-30T01:00:49.770Z,13.75
2023-01-30T01:03:17.301Z,15.20
2023-01-30T01:05:44.883Z,15.15
2023-01-30T01:08:15.237Z,13.50
2023-01-30T01:10:42.758Z,15.05
2023-01-30T01:13:10.612Z,18.92
2023-01-30T01:15:38.301Z,17.27
2023-01-30T01:18:06.361Z,17.92
2023-01-30T01:20:33.699Z,15.45
2023-01-30T01:23:00.977Z,13.82
2023-01-30T01:25:28.220Z,15.00
2023-01-30T01:27:55.685Z,16.93
2023-01-30T01:30:23.032Z,16.55
2023-01-30T01:32:50.283Z,19.33
2023-01-30T01:35:19.492Z,16.87
2023-01-30T01:37:47.100Z,18.15
2023-01-30T01:40:40.336Z,18.73
2023-01-30T01:43:35.376Z,17.90
2023-01-30T01:46:10.697Z,19.67
2023-01-30T01:48:47.171Z,20.70
2023-01-30T01:51:47.025Z,19.95
2023-01-30T01:54:26.036Z,19.33
2023-01-30T01:56:53.914Z,18.80
2023-01-30T01:59:38.957Z,17.35
2023-01-30T02:02:10.763Z,16.30
2023-01-30T02:05:01.178Z,16.15
2023-01-30T02:07:35.292Z,19.25
2023-01-30T02:10:04.112Z,18.98
2023-01-30T02:12:32.569Z,17.58
2023-01-30T02:15:01.136Z,21.13
2023-01-30T02:17:28.323Z,22.75
2023-01-30T02:20:02.255Z,19.90
2023-01-30T02:22:51.340Z,18.45
2023-01-30T02:25:46.450Z,16.95
2023-01-30T02:28:45.099Z,17.45
2023-01-30T02:31:48.062Z,16.27
2023-01-30T02:34:24.649Z,12.73
2023-01-30T02:36:55.115Z,15.10
2023-01-30T02:40:05.737Z,17.20
2023-01-30T02:42:44.948Z,15.73
2023-01-30T02:45:31.128Z,13.95
2023-01-30T02:48:06.646Z,14.55
2023-01-30T02:50:48.329Z,16.00
2023-01-30T02:53:16.156Z,22.03
2023-01-30T02:55:43.359Z,18.17
2023-01-30T02:58:12.316Z,13.65
2023-01-30T03:01:07.349Z,18.60
2023-01-30T03:04:09.527Z,17.30
2023-01-30T03:06:55.570Z,12.40
2023-01-30T03:09:34.873Z,17.95
2023-01-30T03:12:11.592Z,18.58
2023-01-30T03:14:47.632Z,14.90
2023-01-30T03:17:18.162Z,15.63
2023-01-30T03:19:45.844Z,17.17
2023-01-30T03:22:12.995Z,18.23
2023-01-30T03:24:40.351Z,18.93
2023-01-30T03:27:12.373Z,15.07
2023-01-30T03:29:40.112Z,12.75
2023-01-30T03:32:07.429Z,11.48
2023-01-30T03:34:34.959Z,19.35
2023-01-30T03:37:02.713Z,14.82
2023-01-30T03:39:34.594Z,14.80
2023-01-30T03:42:01.881Z,15.00
2023-01-30T03:44:29.390Z,14.95
2023-01-30T03:46:56.856Z,13.25
2023-01-30T03:49:24.303Z,12.35
2023-01-30T03:51:52.314Z,12.77
2023-01-30T03:54:19.740Z,15.10
2023-01-30T03:56:47.535Z,16.27
2023-01-30T03:59:14.692Z,16.57
2023-01-30T04:01:49.198Z,17.40
2023-01-30T04:04:16.429Z,14.50
2023-01-30T04:06:43.692Z,20.75
2023-01-30T04:09:10.835Z,16.30
2023-01-30T04:11:42.849Z,12.30
2023-01-30T04:14:10.040Z,17.38
2023-01-30T04:16:47.386Z,14.30
2023-01-30T04:19:37.926Z,15.17
2023-01-30T04:22:05.353Z,15.45
2023-01-30T04:24:33.047Z,15.57
2023-01-30T04:27:00.229Z,15.18
2023-01-30T04:29:28.603Z,11.90
2023-01-30T04:31:56.405Z,8.33
2023-01-30T04:34:26.698Z,14.40
2023-01-30T04:36:55.484Z,14.88
2023-01-30T04:39:23.265Z,14.68
2023-01-30T04:41:52.368Z,15.75
2023-01-30T04:44:19.905Z,14.07
2023-01-30T04:46:58.036Z,14.43
2023-01-30T04:49:25.423Z,14.10
2023-01-30T04:51:53.980Z,15.20
2023-01-30T04:54:21.249Z,15.45
2023-01-30T04:56:48.436Z,16.05
2023-01-30T04:59:16.458Z,14.65
2023-01-30T05:01:45.429Z,12.90
2023-01-30T05:04:13.262Z,20.50
2023-01-30T05:06:40.897Z,22.98
2023-01-30T05:09:08.071Z,15.82
2023-01-30T05:11:35.258Z,16.38
2023-01-30T05:14:02.591Z,16.35
2023-01-30T05:16:29.859Z,18.92
2023-01-30T05:18:57.105Z,14.27
2023-01-30T05:21:28.469Z,19.60
2023-01-30T05:23:56.789Z,20.33
2023-01-30T05:26:24.695Z,20.83
2023-01-30T05:28:56.755Z,15.10
2023-01-30T05:31:24.514Z,19.67
2023-01-30T05:33:52.681Z,19.10
2023-01-30T05:36:22.674Z,18.60
2023-01-30T05:38:50.080Z,18.27
2023-01-30T05:41:18.038Z,14.93
2023-01-30T05:43:49.711Z,15.83
2023-01-30T05:46:17.045Z,14.25
2023-01-30T05:48:44.311Z,14.00
2023-01-30T05:51:22.932Z,18.67
2023-01-30T05:53:51.005Z,12.48
2023-01-30T05:56:19.381Z,17.63
2023-01-30T05:58:54.112Z,16.85
2023-01-30T06:01:22.288Z,16.52
2023-01-30T06:03:50.226Z,10.65
2023-01-30T06:06:17.685Z,17.73
2023-01-30T06:08:45.509Z,14.82
2023-01-30T06:11:17.044Z,20.45
2023-01-30T06:13:44.709Z,23.85
2023-01-30T06:16:13.669Z,20.80
2023-01-30T06:18:41.410Z,21.80
2023-01-30T06:21:08.736Z,21.40
2023-01-30T06:23:35.970Z,16.90
2023-01-30T06:26:04.965Z,25.23
2023-01-30T06:28:33.111Z,23.83
2023-01-30T06:31:00.438Z,22.27
2023-01-30T06:33:27.646Z,20.38
2023-01-30T06:35:54.996Z,18.00
2023-01-30T06:38:22.230Z,19.38
2023-01-30T06:40:50.693Z,18.85
2023-01-30T06:43:18.378Z,18.20
2023-01-30T06:45:45.543Z,24.05
2023-01-30T06:48:12.801Z,21.80
2023-01-30T06:50:40.022Z,25.98
2023-01-30T06:53:08.358Z,21.73
2023-01-30T06:55:35.977Z,25.83
2023-01-30T06:58:11.971Z,30.30
2023-01-30T07:00:40.770Z,24.58
2023-01-30T07:03:16.013Z,26.48
2023-01-30T07:05:45.615Z,22.60
2023-01-30T07:08:13.509Z,22.85
2023-01-30T07:10:42.002Z,21.33
2023-01-30T07:13:09.387Z,21.17
2023-01-30T07:15:36.580Z,17.98
2023-01-30T07:18:03.930Z,20.58
2023-01-30T07:20:31.277Z,20.55
2023-01-30T07:22:58.980Z,19.90
2023-01-30T07:25:27.825Z,16.30
2023-01-30T07:27:58.425Z,16.85
2023-01-30T07:30:27.601Z,24.67
2023-01-30T07:32:57.792Z,20.70
2023-01-30T07:35:26.582Z,25.83
2023-01-30T07:37:53.829Z,17.05
2023-01-30T07:40:22.120Z,23.70
2023-01-30T07:43:02.987Z,23.33
2023-01-30T07:45:35.571Z,21.50
2023-01-30T07:48:02.900Z,21.67
2023-01-30T07:50:30.156Z,21.20
2023-01-30T07:52:57.325Z,21.08
2023-01-30T07:55:24.634Z,21.73
2023-01-30T07:57:51.837Z,19.03
2023-01-30T08:00:19.620Z,24.60
2023-01-30T08:02:47.014Z,21.75
2023-01-30T08:05:14.345Z,16.08
2023-01-30T08:07:41.607Z,19.17
2023-01-30T08:10:15.238Z,13.68
2023-01-30T08:12:42.800Z,14.02
2023-01-30T08:15:10.593Z,17.38
2023-01-30T08:17:37.947Z,20.77
2023-01-30T08:20:05.708Z,15.75
2023-01-30T08:22:32.947Z,15.32
2023-01-30T08:25:00.441Z,11.65
2023-01-30T08:27:27.790Z,21.77
2023-01-30T08:29:54.942Z,18.13
2023-01-30T08:32:22.075Z,20.70
2023-01-30T08:34:49.253Z,24.60
2023-01-30T08:37:16.418Z,22.42
2023-01-30T08:39:43.703Z,20.88
2023-01-30T08:42:10.851Z,23.92
2023-01-30T08:44:37.973Z,18.97
2023-01-30T08:47:05.270Z,23.70
2023-01-30T08:49:32.412Z,17.52
2023-01-30T08:51:59.633Z,24.55
2023-01-30T08:54:26.885Z,20.73
2023-01-30T08:56:54.171Z,23.52
2023-01-30T08:59:23.382Z,18.92
2023-01-30T09:01:50.592Z,17.30
2023-01-30T09:04:17.732Z,16.52
2023-01-30T09:06:44.989Z,17.13
2023-01-30T09:09:12.194Z,16.13
2023-01-30T09:11:39.337Z,15.02
2023-01-30T09:14:06.534Z,16.63
2023-01-30T09:16:33.724Z,12.88
2023-01-30T09:19:00.970Z,12.85
2023-01-30T09:21:28.596Z,16.70
2023-01-30T09:23:56.610Z,18.33
2023-01-30T09:26:24.021Z,19.75
2023-01-30T09:28:51.299Z,20.30
2023-01-30T09:31:18.568Z,26.85
2023-01-30T09:33:48.419Z,19.40
2023-01-30T09:36:15.667Z,20.73
2023-01-30T09:38:42.886Z,20.30
2023-01-30T09:41:37.312Z,17.08
2023-01-30T09:44:36.437Z,14.10
2023-01-30T09:47:06.368Z,16.20
2023-01-30T09:49:42.491Z,22.35
2023-01-30T09:52:51.136Z,17.08
2023-01-30T09:55:30.605Z,20.88
2023-01-30T09:58:00.519Z,19.33
2023-01-30T10:00:37.739Z,14.53
2023-01-30T10:03:24.612Z,16.92
2023-01-30T10:06:01.255Z,15.98
2023-01-30T10:08:40.396Z,17.92
2023-01-30T10:11:35.685Z,15.75
2023-01-30T10:14:42.864Z,18.90
2023-01-30T10:17:32.895Z,17.48
2023-01-30T10:20:34.283Z,13.30
2023-01-30T10:23:26.122Z,22.42
2023-01-30T10:25:56.660Z,18.57
2023-01-30T10:28:32.561Z,11.55
2023-01-30T10:31:15.008Z,17.25
2023-01-30T10:33:50.304Z,9.88
2023-01-30T10:36:29.537Z,20.75
2023-01-30T10:39:00.504Z,19.80
2023-01-30T10:41:36.481Z,20.73
2023-01-30T10:44:11.199Z,16.75
2023-01-30T10:47:09.374Z,21.73
2023-01-30T10:49:45.680Z,20.58
2023-01-30T10:52:43.806Z,15.70
2023-01-30T10:55:37.961Z,19.13
2023-01-30T10:58:16.289Z,18.50
2023-01-30T11:00:46.737Z,14.10
2023-01-30T11:03:19.940Z,15.50
2023-01-30T11:05:59.643Z,18.25
2023-01-30T11:08:34.390Z,21.67
2023-01-30T11:11:20.082Z,26.50
2023-01-30T11:13:47.404Z,20.30
2023-01-30T11:16:15.831Z,15.73
2023-01-30T11:19:18.677Z,16.80
2023-01-30T11:21:44.607Z,20.42
2023-01-30T11:24:34.713Z,27.10
2023-01-30T11:27:17.651Z,23.47
2023-01-30T11:29:45.052Z,16.98
2023-01-30T11:32:24.956Z,22.35
2023-01-30T11:35:28.619Z,25.15
2023-01-30T11:38:21.085Z,17.40
2023-01-30T11:40:49.127Z,15.15
2023-01-30T11:43:16.300Z,22.48
2023-01-30T11:45:48.125Z,11.80
2023-01-30T11:48:33.362Z,22.00
2023-01-30T11:51:09.179Z,20.42
2023-01-30T11:53:48.720Z,14.95
2023-01-30T11:56:24.115Z,15.32
2023-01-30T11:58:59.940Z,19.58
2023-01-30T12:01:33.837Z,23.40
2023-01-30T12:04:02.136Z,14.52
2023-01-30T12:06:35.300Z,13.35
2023-01-30T12:09:03.341Z,20.17
2023-01-30T12:11:30.591Z,21.33
2023-01-30T12:14:14.039Z,17.83
2023-01-30T12:16:56.692Z,20.75
2023-01-30T12:19:43.218Z,21.88
2023-01-30T12:22:26.601Z,18.30
2023-01-30T12:25:01.961Z,16.15
2023-01-30T12:27:49.148Z,14.10
2023-01-30T12:30:25.227Z,18.95
2023-01-30T12:32:59.207Z,22.13
2023-01-30T12:35:37.312Z,21.88
2023-01-30T12:38:23.271Z,20.33
2023-01-30T12:41:07.488Z,24.15
2023-01-30T12:44:15.218Z,20.33
2023-01-30T12:47:14.726Z,17.10
2023-01-30T12:50:13.066Z,22.00
2023-01-30T12:53:22.449Z,22.13
2023-01-30T12:56:21.637Z,18.07
2023-01-30T12:59:14.983Z,19.45
2023-01-30T13:01:43.270Z,18.52
2023-01-30T13:04:40.055Z,15.85
2023-01-30T13:07:41.288Z,21.95
2023-01-30T13:10:44.599Z,11.25
2023-01-30T13:13:22.529Z,23.02
2023-01-30T13:16:21.086Z,20.13
2023-01-30T13:18:57.651Z,18.80
2023-01-30T13:22:05.370Z,13.75
2023-01-30T13:25:02.033Z,17.52
2023-01-30T13:27:33.533Z,15.20
2023-01-30T13:30:04.363Z,13.20
2023-01-30T13:32:41.423Z,16.13
2023-01-30T13:35:19.354Z,18.75
2023-01-30T13:37:48.983Z,12.65
2023-01-30T13:40:18.678Z,19.80
2023-01-30T13:43:00.170Z,21.90
2023-01-30T13:45:32.230Z,20.70
2023-01-30T13:48:29.955Z,19.92
2023-01-30T13:51:28.959Z,23.40
2023-01-30T13:54:10.518Z,23.92
2023-01-30T13:56:55.378Z,18.30
2023-01-30T13:59:37.363Z,22.90
2023-01-30T14:02:06.516Z,20.08
2023-01-30T14:04:44.977Z,23.73
2023-01-30T14:07:12.164Z,20.42
2023-01-30T14:09:44.464Z,18.83
2023-01-30T14:12:25.986Z,18.52
2023-01-30T14:15:13.688Z,28.60
2023-01-30T14:18:00.755Z,21.58
2023-01-30T14:20:31.137Z,15.97
2023-01-30T14:23:05.348Z,25.03
2023-01-30T14:25:44.817Z,17.23
2023-01-30T14:28:11.952Z,17.40
2023-01-30T14:30:45.366Z,22.30
2023-01-30T14:33:21.549Z,21.10
2023-01-30T14:36:00.764Z,22.13
2023-01-30T14:38:30.494Z,19.55
2023-01-30T14:41:00.647Z,17.45
2023-01-30T14:43:43.014Z,12.43
2023-01-30T14:46:40.881Z,23.38
2023-01-30T14:49:29.115Z,17.20
2023-01-30T14:51:56.901Z,19.35
2023-01-30T14:54:40.254Z,24.10
2023-01-30T14:57:32.413Z,24.40
2023-01-30T15:00:18.234Z,16.52
2023-01-30T15:02:53.887Z,23.00
2023-01-30T15:05:43.552Z,19.60
2023-01-30T15:08:16.619Z,14.30
2023-01-30T15:10:52.782Z,26.25
2023-01-30T15:13:42.199Z,21.02
2023-01-30T15:16:24.137Z,20.83
2023-01-30T15:19:20.639Z,22.48
2023-01-30T15:22:18.406Z,21.25
2023-01-30T15:25:13.737Z,19.25
2023-01-30T15:27:59.039Z,20.45
2023-01-30T15:30:26.175Z,24.55
2023-01-30T15:33:19.894Z,28.30
2023-01-30T15:35:50.181Z,26.08
2023-01-30T15:38:28.937Z,24.48
2023-01-30T15:41:00.729Z,25.17
2023-01-30T15:43:48.198Z,31.47
2023-01-30T15:46:37.696Z,31.27
2023-01-30T15:49:17.021Z,28.60
2023-01-30T15:51:45.411Z,25.48
2023-01-30T15:54:18.213Z,23.77
2023-01-30T15:56:49.508Z,28.98
2023-01-30T15:59:36.221Z,24.73
2023-01-30T16:02:30.610Z,25.70
2023-01-30T16:05:17.435Z,20.65
2023-01-30T16:07:47.152Z,21.92
2023-01-30T16:10:20.864Z,22.00
2023-01-30T16:12:49.678Z,25.42
2023-01-30T16:15:45.882Z,22.15
2023-01-30T16:18:22.742Z,23.25
2023-01-30T16:21:02.101Z,24.33
2023-01-30T16:23:40.258Z,27.27
2023-01-30T16:26:14.163Z,25.23
2023-01-30T16:28:41.578Z,25.30
2023-01-30T16:31:10.675Z,27.73
2023-01-30T16:33:38.715Z,30.33
2023-01-30T16:36:27.219Z,24.58
2023-01-30T16:38:55.106Z,22.90
2023-01-30T16:41:34.528Z,24.03
2023-01-30T16:44:17.220Z,22.20
2023-01-30T16:46:48.958Z,20.35
2023-01-30T16:49:28.944Z,20.65
2023-01-30T16:52:20.480Z,16.40
2023-01-30T16:54:52.426Z,20.17
2023-01-30T16:57:39.745Z,21.90
2023-01-30T17:00:27.926Z,22.58
2023-01-30T17:03:01.024Z,21.23
2023-01-30T17:05:30.955Z,18.85
2023-01-30T17:08:00.434Z,13.55
2023-01-30T17:10:42.730Z,19.67
2023-01-30T17:13:34.891Z,22.92
2023-01-30T17:16:23.889Z,23.37
2023-01-30T17:18:53.082Z,26.60
2023-01-30T17:21:23.049Z,28.35
2023-01-30T17:23:57.752Z,29.67
2023-01-30T17:26:25.035Z,33.97
2023-01-30T17:28:52.243Z,32.42
2023-01-30T17:31:20.906Z,32.83
2023-01-30T17:33:48.324Z,32.85
2023-01-30T17:36:35.780Z,34.53
2023-01-30T17:39:03.071Z,32.13
2023-01-30T17:41:32.443Z,27.20
2023-01-30T17:43:59.626Z,26.83
2023-01-30T17:46:35.069Z,26.67
2023-01-30T17:49:02.637Z,25.80
2023-01-30T17:51:29.876Z,25.13
2023-01-30T17:53:57.091Z,25.25
2023-01-30T17:56:32.127Z,25.40
2023-01-30T17:58:59.329Z,28.20
2023-01-30T18:01:26.625Z,31.75
2023-01-30T18:03:53.815Z,36.13
2023-01-30T18:06:20.996Z,31.92
2023-01-30T18:08:48.267Z,29.88
2023-01-30T18:11:15.982Z,25.02
2023-01-30T18:13:43.252Z,31.02
2023-01-30T18:16:17.094Z,31.00
2023-01-30T18:18:44.280Z,26.17
2023-01-30T18:21:11.427Z,28.50
2023-01-30T18:23:38.661Z,23.40
2023-01-30T18:26:06.049Z,24.10
2023-01-30T18:28:33.325Z,27.60
2023-01-30T18:31:00.644Z,24.85
2023-01-30T18:33:27.855Z,28.90
2023-01-30T18:35:55.117Z,25.25
2023-01-30T18:38:22.314Z,25.80
2023-01-30T18:40:49.472Z,27.55
2023-01-30T18:43:16.713Z,26.75
2023-01-30T18:45:43.918Z,25.73
2023-01-30T18:48:11.082Z,25.63
2023-01-30T18:50:38.313Z,31.25
2023-01-30T18:53:07.201Z,26.90
2023-01-30T18:55:35.831Z,34.33
2023-01-30T18:58:03.124Z,35.22
2023-01-30T19:00:30.391Z,32.33
2023-01-30T19:02:57.745Z,29.65
2023-01-30T19:05:24.904Z,34.10
2023-01-30T19:07:52.150Z,31.27
2023-01-30T19:10:20.465Z,32.67
2023-01-30T19:13:06.300Z,26.23
2023-01-30T19:15:35.868Z,30.70
2023-01-30T19:18:03.111Z,29.30
2023-01-30T19:20:31.103Z,25.90
2023-01-30T19:22:58.534Z,27.25
2023-01-30T19:25:25.876Z,30.92
2023-01-30T19:27:55.053Z,26.30
2023-01-30T19:30:22.925Z,28.42
2023-01-30T19:32:51.946Z,26.77
2023-01-30T19:35:19.412Z,22.48
2023-01-30T19:37:46.696Z,22.45
2023-01-30T19:40:13.892Z,27.48
2023-01-30T19:42:44.437Z,22.00
2023-01-30T19:45:12.282Z,24.10
2023-01-30T19:47:39.464Z,26.77
2023-01-30T19:50:07.434Z,26.58
2023-01-30T19:52:34.848Z,24.27
2023-01-30T19:55:02.130Z,27.52
2023-01-30T19:57:29.273Z,29.15
2023-01-30T19:59:56.449Z,33.10
2023-01-30T20:02:24.418Z,26.40
2023-01-30T20:04:51.666Z,29.55
2023-01-30T20:07:18.907Z,30.15
2023-01-30T20:09:46.129Z,33.72
2023-01-30T20:12:13.517Z,33.38
2023-01-30T20:14:40.685Z,27.95
2023-01-30T20:17:07.937Z,29.75
2023-01-30T20:19:35.169Z,26.23
2023-01-30T20:22:08.015Z,31.45
2023-01-30T20:24:35.652Z,28.63
2023-01-30T20:27:03.960Z,28.30
2023-01-30T20:29:31.349Z,30.15
2023-01-30T20:31:58.624Z,28.77
2023-01-30T20:34:25.930Z,29.27
2023-01-30T20:36:53.145Z,28.63
2023-01-30T20:39:21.595Z,28.05
2023-01-30T20:41:49.018Z,28.33
2023-01-30T20:44:16.738Z,29.67
2023-01-30T20:46:46.084Z,27.45
2023-01-30T20:49:21.791Z,25.70
2023-01-30T20:51:51.716Z,26.92
2023-01-30T20:54:21.298Z,26.00
2023-01-30T20:56:53.559Z,20.88
2023-01-30T20:59:27.175Z,23.02
2023-01-30T21:01:55.206Z,22.70
2023-01-30T21:04:24.405Z,25.67
2023-01-30T21:06:51.947Z,18.93
2023-01-30T21:09:21.640Z,20.40
2023-01-30T21:11:49.605Z,23.02
2023-01-30T21:14:17.200Z,26.40
2023-01-30T21:16:45.047Z,20.85
2023-01-30T21:19:16.091Z,24.05
2023-01-30T21:21:53.319Z,18.48
2023-01-30T21:24:28.714Z,21.10
2023-01-30T21:26:56.571Z,16.85
2023-01-30T21:29:25.809Z,18.25
2023-01-30T21:31:54.003Z,20.73
2023-01-30T21:34:22.004Z,17.50
2023-01-30T21:37:09.162Z,15.60
2023-01-30T21:39:54.768Z,19.35
2023-01-30T21:42:40.777Z,18.70
2023-01-30T21:45:08.475Z,20.50
2023-01-30T21:47:36.750Z,16.17
2023-01-30T21:50:04.346Z,23.70
2023-01-30T21:52:33.170Z,17.52
2023-01-30T21:55:00.452Z,18.83
2023-01-30T21:57:27.746Z,22.50
2023-01-30T21:59:55.509Z,16.92
2023-01-30T22:02:22.764Z,19.30
2023-01-30T22:04:49.944Z,19.40
2023-01-30T22:07:17.179Z,23.88
2023-01-30T22:09:44.425Z,17.13
2023-01-30T22:12:11.616Z,20.20
2023-01-30T22:14:41.144Z,25.47
2023-01-30T22:17:08.366Z,22.05
2023-01-30T22:19:35.961Z,23.57
2023-01-30T22:22:04.143Z,22.75
2023-01-30T22:24:34.678Z,23.88
2023-01-30T22:27:01.911Z,24.17
2023-01-30T22:29:29.302Z,27.63
2023-01-30T22:31:56.550Z,24.17
2023-01-30T22:34:23.785Z,22.58
2023-01-30T22:36:51.703Z,22.60
2023-01-30T22:39:18.973Z,25.17
2023-01-30T22:41:46.574Z,23.45
2023-01-30T22:44:13.830Z,19.85
2023-01-30T22:46:41.363Z,21.58
2023-01-30T22:49:09.416Z,24.40
2023-01-30T22:51:39.554Z,24.45
2023-01-30T22:54:15.674Z,25.08
2023-01-30T22:56:45.666Z,25.70
2023-01-30T22:59:13.747Z,28.73
2023-01-30T23:01:44.623Z,24.52
2023-01-30T23:04:17.692Z,28.93
2023-01-30T23:06:45.816Z,29.17
2023-01-30T23:09:19.117Z,25.17
2023-01-30T23:12:10.891Z,27.98
2023-01-30T23:14:38.403Z,25.98
2023-01-30T23:17:26.766Z,24.75
2023-01-30T23:19:54.893Z,26.88
2023-01-30T23:22:22.439Z,26.25
2023-01-30T23:24:50.960Z,27.65
2023-01-30T23:27:18.689Z,25.67
2023-01-30T23:29:45.877Z,25.30
2023-01-30T23:32:13.075Z,26.33
2023-01-30T23:34:40.330Z,28.17
2023-01-30T23:37:07.808Z,22.83
2023-01-30T23:39:35.489Z,32.00
2023-01-30T23:42:02.847Z,28.15
2023-01-30T23:44:30.033Z,31.50
2023-01-30T23:46:57.315Z,27.37
2023-01-30T23:49:24.691Z,24.33
2023-01-30T23:51:51.939Z,32.00
2023-01-30T23:54:19.103Z,31.30
2023-01-30T23:56:46.300Z,29.92
2023-01-30T23:59:13.481Z,27.15
